createdAt,value
2022-09-23T00:01:00.212Z,6.90
2022-09-23T00:07:32.446Z,7.80
2022-09-23T00:13:57.714Z,7.20
2022-09-23T00:19:48.349Z,9.30
2022-09-23T00:26:26.072Z,9.60
2022-09-23T00:33:17.059Z,8.90
2022-09-23T00:40:02.738Z,9.10
2022-09-23T00:46:31.881Z,9.90
2022-09-23T00:52:55.072Z,8.00
2022-09-23T00:59:15.699Z,8.80
2022-09-23T01:05:54.424Z,9.50
2022-09-23T01:12:40.107Z,9.20
2022-09-23T01:19:47.288Z,9.70
2022-09-23T01:26:26.960Z,9.10
2022-09-23T01:33:24.474Z,8.60
2022-09-23T01:40:15.658Z,10.10
2022-09-23T01:46:25.359Z,8.40
2022-09-23T01:53:23.583Z,10.10
2022-09-23T02:00:12.101Z,9.60
2022-09-23T02:06:24.893Z,10.90
2022-09-23T02:12:48.727Z,10.60
2022-09-23T02:19:38.545Z,11.00
2022-09-23T02:26:39.444Z,10.30
2022-09-23T02:33:45.603Z,10.00
2022-09-23T02:40:23.361Z,9.00
2022-09-23T02:46:35.592Z,10.40
2022-09-23T02:52:56.555Z,9.70
2022-09-23T02:59:20.100Z,8.80
2022-09-23T03:06:07.458Z,9.40
2022-09-23T03:13:00.387Z,9.60
2022-09-23T03:20:12.471Z,9.60
2022-09-23T03:27:16.132Z,9.10
2022-09-23T03:32:45.786Z,9.20
2022-09-23T03:38:35.154Z,9.60
2022-09-23T03:44:00.026Z,9.80
2022-09-23T03:50:27.681Z,9.80
2022-09-23T03:57:12.672Z,8.80
2022-09-23T04:03:36.604Z,9.50
2022-09-23T04:10:08.007Z,8.40
2022-09-23T04:16:13.544Z,9.50
2022-09-23T04:22:16.570Z,8.60
2022-09-23T04:28:36.457Z,8.60
2022-09-23T04:35:22.522Z,8.60
2022-09-23T04:42:08.551Z,9.20
2022-09-23T04:48:20.752Z,9.20
2022-09-23T04:54:07.455Z,9.50
2022-09-23T05:00:18.441Z,10.10
2022-09-23T05:05:56.743Z,10.10
2022-09-23T05:12:04.093Z,10.50
2022-09-23T05:18:07.624Z,10.90
2022-09-23T05:24:18.908Z,11.00
2022-09-23T05:29:53.488Z,11.20
2022-09-23T05:35:56.456Z,10.90
2022-09-23T05:42:32.537Z,10.50
2022-09-23T05:48:36.043Z,11.20
2022-09-23T05:53:52.629Z,15.90
2022-09-23T05:59:08.664Z,10.70
2022-09-23T06:05:02.337Z,9.40
2022-09-23T06:10:57.770Z,11.00
2022-09-23T06:17:23.484Z,11.20
2022-09-23T06:24:41.505Z,9.20
2022-09-23T06:30:32.100Z,9.50
2022-09-23T06:36:46.808Z,9.90
2022-09-23T06:43:21.968Z,10.40
2022-09-23T06:49:46.969Z,8.80
2022-09-23T07:02:18.715Z,8.50
2022-09-23T07:07:58.241Z,9.20
2022-09-23T07:13:31.493Z,9.30
2022-09-23T07:19:16.204Z,11.20
2022-09-23T07:24:28.027Z,11.60
2022-09-23T07:29:53.641Z,10.50
2022-09-23T07:35:31.712Z,10.40
2022-09-23T07:41:26.177Z,11.40
2022-09-23T07:47:28.345Z,12.60
2022-09-23T07:53:44.523Z,10.90
2022-09-23T07:59:09.318Z,9.80
2022-09-23T08:05:00.757Z,9.10
2022-09-23T08:11:33.902Z,9.90
2022-09-23T08:18:15.873Z,9.10
2022-09-23T08:24:36.853Z,8.10
2022-09-23T08:30:59.181Z,6.40
2022-09-23T08:37:02.410Z,7.40
2022-09-23T08:43:33.510Z,6.50
2022-09-23T08:49:59.536Z,5.60
2022-09-23T08:56:01.322Z,5.10
2022-09-23T09:02:17.296Z,5.40
2022-09-23T09:08:46.630Z,5.20
2022-09-23T09:15:34.437Z,4.90
2022-09-23T09:21:50.652Z,4.40
2022-09-23T09:27:15.257Z,7.30
2022-09-23T09:32:48.445Z,4.40
2022-09-23T09:38:41.087Z,4.50
2022-09-23T09:45:24.766Z,5.20
2022-09-23T09:51:42.726Z,4.00
2022-09-23T09:56:56.644Z,4.20
2022-09-23T10:02:40.968Z,4.20
2022-09-23T10:09:08.857Z,4.60
2022-09-23T10:15:45.238Z,3.00
2022-09-23T10:21:53.521Z,2.50
2022-09-23T10:27:40.029Z,2.10
2022-09-23T10:34:00.889Z,2.50
2022-09-23T10:40:19.903Z,2.60
2022-09-23T10:47:00.003Z,3.80
2022-09-23T10:52:36.188Z,2.90
2022-09-23T10:59:15.600Z,2.60
2022-09-23T11:05:51.491Z,2.90
2022-09-23T11:11:55.004Z,2.30
2022-09-23T11:18:34.530Z,2.60
2022-09-23T11:23:49.488Z,1.50
2022-09-23T11:29:30.869Z,1.20
2022-09-23T11:36:04.646Z,1.40
2022-09-23T11:41:25.878Z,1.50
2022-09-23T11:53:06.193Z,1.80
2022-09-23T11:59:00.158Z,2.10
2022-09-23T12:11:02.774Z,1.10
2022-09-23T12:17:36.554Z,1.10
2022-09-23T12:23:43.701Z,1.00
2022-09-23T12:29:59.172Z,5.00
2022-09-23T12:36:03.177Z,1.00
2022-09-23T12:42:17.100Z,0.90
2022-09-23T12:47:48.202Z,1.40
2022-09-23T12:54:01.636Z,0.90
2022-09-23T13:00:40.498Z,1.30
2022-09-23T13:07:44.436Z,1.00
2022-09-23T13:14:39.205Z,1.40
2022-09-23T13:20:52.011Z,1.30
2022-09-23T13:27:02.237Z,1.00
2022-09-23T13:33:04.625Z,1.60
2022-09-23T13:38:37.988Z,1.40
2022-09-23T13:44:03.305Z,1.30
2022-09-23T13:49:14.928Z,1.30
2022-09-23T13:54:49.184Z,1.40
2022-09-23T14:00:32.017Z,1.70
2022-09-23T14:05:39.177Z,1.50
2022-09-23T14:11:06.363Z,1.50
2022-09-23T14:17:01.478Z,1.80
2022-09-23T14:22:58.413Z,1.40
2022-09-23T14:28:47.135Z,1.30
2022-09-23T14:35:38.814Z,1.10
2022-09-23T14:41:54.308Z,1.30
2022-09-23T14:48:03.285Z,1.60
2022-09-23T14:54:09.597Z,1.60
2022-09-23T15:01:02.611Z,1.70
2022-09-23T15:07:26.806Z,1.60
2022-09-23T15:14:02.182Z,2.00
2022-09-23T15:20:08.488Z,1.60
2022-09-23T15:26:58.393Z,1.30
2022-09-23T15:38:40.010Z,1.60
2022-09-23T15:44:51.376Z,1.10
2022-09-23T15:50:49.391Z,1.40
2022-09-23T15:56:34.966Z,2.10
2022-09-23T16:02:44.060Z,2.30
2022-09-23T16:09:05.584Z,1.10
2022-09-23T16:14:35.281Z,1.50
2022-09-23T16:20:15.255Z,1.00
2022-09-23T16:26:08.026Z,1.40
2022-09-23T16:32:35.531Z,1.50
2022-09-23T16:38:08.675Z,1.70
2022-09-23T16:44:37.415Z,2.60
2022-09-23T16:51:10.399Z,2.80
2022-09-23T16:57:46.434Z,3.20
2022-09-23T17:04:10.812Z,3.70
2022-09-23T17:10:27.497Z,4.20
2022-09-23T17:16:36.871Z,4.10
2022-09-23T17:22:12.353Z,4.70
2022-09-23T17:27:25.082Z,5.30
2022-09-23T17:32:27.310Z,6.00
2022-09-23T17:37:32.563Z,10.50
2022-09-23T17:43:35.696Z,6.70
2022-09-23T17:49:17.992Z,7.00
2022-09-23T17:54:45.996Z,5.10
2022-09-23T18:00:30.955Z,6.70
2022-09-23T18:05:54.136Z,5.20
2022-09-23T18:11:24.834Z,6.00
2022-09-23T18:16:59.730Z,7.70
2022-09-23T18:22:11.843Z,12.10
2022-09-23T18:27:42.852Z,15.40
2022-09-23T18:33:21.389Z,18.80
2022-09-23T18:38:48.780Z,24.60
2022-09-23T18:43:54.441Z,32.50
2022-09-23T18:49:21.374Z,24.80
2022-09-23T18:55:51.788Z,18.10
2022-09-23T19:02:10.243Z,20.20
2022-09-23T19:08:07.497Z,22.10
2022-09-23T19:13:38.107Z,22.50
2022-09-23T19:18:47.585Z,20.50
2022-09-23T19:24:03.970Z,20.90
2022-09-23T19:29:38.674Z,19.90
2022-09-23T19:36:26.904Z,24.60
2022-09-23T19:41:52.652Z,27.90
2022-09-23T19:46:57.453Z,31.20
2022-09-23T19:52:19.469Z,33.10
2022-09-23T19:57:24.158Z,34.30
2022-09-23T20:02:36.421Z,47.60
2022-09-23T20:08:03.016Z,36.40
2022-09-23T20:13:07.911Z,34.10
2022-09-23T20:18:55.921Z,31.70
2022-09-23T20:23:59.013Z,31.90
2022-09-23T20:29:55.331Z,35.20
2022-09-23T20:34:57.288Z,36.70
2022-09-23T20:40:30.288Z,36.40
2022-09-23T20:46:02.310Z,45.50
2022-09-23T20:51:44.360Z,40.80
2022-09-23T20:56:49.757Z,37.90
2022-09-23T21:02:33.640Z,34.20
2022-09-23T21:08:26.541Z,30.00
2022-09-23T21:13:29.967Z,28.30
2022-09-23T21:19:29.152Z,30.30
2022-09-23T21:26:00.896Z,33.60
2022-09-23T21:32:11.510Z,31.20
2022-09-23T21:45:21.121Z,23.60
2022-09-23T21:52:16.119Z,26.10
2022-09-23T21:58:57.639Z,26.50
2022-09-23T22:05:29.582Z,24.20
2022-09-23T22:12:32.725Z,23.50
2022-09-23T22:19:16.924Z,25.00
2022-09-23T22:26:17.259Z,25.10
2022-09-23T22:33:00.740Z,23.90
2022-09-23T22:39:39.869Z,26.40
2022-09-23T22:45:53.437Z,26.10
2022-09-23T22:52:38.709Z,27.80
2022-09-23T22:59:31.337Z,27.40
2022-09-23T23:05:30.212Z,25.20
2022-09-23T23:11:58.951Z,24.30
2022-09-23T23:18:37.714Z,26.80
2022-09-23T23:25:37.576Z,27.40
2022-09-23T23:32:22.858Z,27.10
2022-09-23T23:39:07.300Z,26.30
2022-09-23T23:45:40.050Z,24.10
2022-09-23T23:52:27.897Z,23.00
2022-09-23T23:59:13.065Z,23.90
